Sandy Hook, Connecticut
Current Conditions -  °F | °C
As of 3:22 PM on Wednesday 26 Nov 2014 (Local Time) from KOXC Reporting Station
Light Snow Light Snow  
Wind Chill: -4°   Ceiling: 500
Heat Index:   Visibility: 1.5mi
Dew Point: -3°   Wind: 12mph
Humidity: 75%   Direction: 50°NE
Pressure: 29.87"   Gusts: 20mph
Location:  41.42°N, 73.28°W
Report Text: KOXC 262022Z 05010G17KT 1 1/2SM -SG BR BKN005 OVC013 01/M03 A2987 RMK PRESFR
Loading
Personal Weather Stations






























Interactive Weather Map New forecast layout! Learn more

10-Day Weather Forecast

Advertisements
Track Severe Weather on mobile